Time;durP1;ratioP1;P1;durP2;ratioP2;P2;SDS_P1;SDS_P2;PMS_P1;PMS_P2;Temp;Humidity;BMP_temperature;BMP_pressure;BME280_temperature;BME280_humidity;BME280_pressure;Samples;Min_cycle;Max_cycle;Signal;HPM_P1;HPM_P2
2021/07/07 00:01:25;;;;;;;2.05;0.52;;;;;;;18.24;71.04;100001.16;10428901;28;20057;-60
2021/07/07 00:06:26;;;;;;;2.10;0.68;;;;;;;18.28;70.82;99994.34;10428622;28;20522;-61
2021/07/07 00:11:28;;;;;;;3.30;0.55;;;;;;;18.27;71.06;100008.88;10423165;28;20041;-61
2021/07/07 00:16:29;;;;;;;2.60;0.50;;;;;;;18.31;72.10;100014.72;10422835;28;20045;-60
2021/07/07 00:21:32;;;;;;;2.75;0.60;;;;;;;18.29;71.98;100017.59;10426119;28;20048;-61
2021/07/07 00:26:33;;;;;;;2.13;0.68;;;;;;;18.30;71.68;99997.72;10426949;28;20597;-61
2021/07/07 00:31:35;;;;;;;6.60;0.90;;;;;;;18.23;71.85;99998.63;10414893;28;20048;-61
2021/07/07 00:36:37;;;;;;;2.72;1.13;;;;;;;18.15;71.89;99994.13;10427169;28;20064;-61
2021/07/07 00:41:38;;;;;;;3.70;0.70;;;;;;;18.16;72.03;99995.81;10419289;28;20628;-61
2021/07/07 00:46:41;;;;;;;2.92;0.50;;;;;;;18.07;72.74;99996.88;10426693;28;20040;-61
2021/07/07 00:51:43;;;;;;;4.72;0.55;;;;;;;18.02;72.62;99990.16;10424765;28;20068;-60
2021/07/07 00:56:44;;;;;;;2.80;0.60;;;;;;;17.99;72.52;99993.22;10425951;28;20139;-61
2021/07/07 01:01:46;;;;;;;1.50;0.50;;;;;;;17.81;72.47;99971.94;10418369;28;20051;-60
2021/07/07 01:06:48;;;;;;;1.88;0.55;;;;;;;17.88;72.63;99988.22;10423203;28;20049;-63
2021/07/07 01:11:50;;;;;;;0.85;0.50;;;;;;;17.91;72.89;99987.91;10425375;28;20102;-61
2021/07/07 01:16:52;;;;;;;1.65;0.50;;;;;;;17.85;72.60;100004.75;10425369;28;20057;-60
2021/07/07 01:21:54;;;;;;;2.90;0.60;;;;;;;17.80;72.15;99996.34;10418983;28;20056;-61
2021/07/07 01:26:55;;;;;;;3.72;1.30;;;;;;;17.85;71.91;99993.97;10424704;28;20045;-61
2021/07/07 01:31:57;;;;;;;2.28;1.20;;;;;;;17.84;71.83;99992.28;10425100;28;20079;-61
2021/07/07 01:36:58;;;;;;;3.92;0.88;;;;;;;17.87;72.02;99997.31;10422870;28;20052;-61
2021/07/07 01:42:00;;;;;;;2.80;0.88;;;;;;;17.88;71.43;99998.13;10425400;28;20548;-65
2021/07/07 01:47:03;;;;;;;2.38;0.50;;;;;;;17.87;71.69;99994.63;10424671;28;20127;-61
2021/07/07 01:52:05;;;;;;;3.45;0.52;;;;;;;17.83;71.08;100004.06;10414755;28;20049;-61
2021/07/07 01:57:07;;;;;;;1.42;0.70;;;;;;;17.81;70.97;100006.94;10424036;28;20051;-61
2021/07/07 02:02:09;;;;;;;0.95;0.30;;;;;;;17.72;70.74;100015.22;10424479;28;20040;-61
2021/07/07 02:07:11;;;;;;;3.70;0.77;;;;;;;17.69;70.30;99981.44;10426950;28;20128;-61
2021/07/07 02:12:13;;;;;;;3.30;0.55;;;;;;;17.66;71.15;100016.78;10415584;28;20045;-61
2021/07/07 02:17:14;;;;;;;2.70;0.88;;;;;;;17.63;70.57;100030.56;10423554;23;20117;-61
2021/07/07 02:22:16;;;;;;;1.58;0.55;;;;;;;17.53;71.47;100021.88;10430043;28;20520;-62
2021/07/07 02:27:17;;;;;;;6.90;2.15;;;;;;;17.54;71.37;100027.06;10442868;28;20052;-63
2021/07/07 02:32:19;;;;;;;1.95;0.57;;;;;;;17.46;71.86;100024.44;10453640;28;20048;-62
2021/07/07 02:37:21;;;;;;;1.38;0.40;;;;;;;17.57;72.16;100029.41;10447389;28;20071;-61
2021/07/07 02:42:22;;;;;;;2.35;0.65;;;;;;;17.61;71.06;100016.44;10460645;28;20059;-61
2021/07/07 02:47:24;;;;;;;1.88;0.70;;;;;;;17.51;71.49;100035.50;10448350;28;20422;-63
2021/07/07 02:52:26;;;;;;;1.15;0.80;;;;;;;17.45;71.65;100046.97;10431561;28;20486;-61
2021/07/07 02:57:27;;;;;;;2.13;0.80;;;;;;;17.34;71.92;100050.00;10442814;28;20045;-63
2021/07/07 03:02:29;;;;;;;3.65;0.82;;;;;;;17.30;72.40;100036.91;10448941;28;20162;-63
2021/07/07 03:07:30;;;;;;;2.85;1.08;;;;;;;17.39;71.78;100058.41;10450875;28;20048;-61
2021/07/07 03:12:32;;;;;;;1.33;0.70;;;;;;;17.40;72.45;100068.16;10455801;28;20409;-68
2021/07/07 03:17:34;;;;;;;2.42;0.63;;;;;;;17.34;72.50;100050.88;10435476;28;20049;-64
2021/07/07 03:22:36;;;;;;;4.45;0.60;;;;;;;17.22;72.10;100053.09;10466067;28;20501;-66
2021/07/07 03:27:38;;;;;;;3.35;0.77;;;;;;;17.14;72.58;100069.22;10445332;28;20056;-62
2021/07/07 03:32:39;;;;;;;1.17;0.50;;;;;;;17.14;72.48;100071.91;10461311;28;20071;-63
2021/07/07 03:37:42;;;;;;;3.88;0.80;;;;;;;17.14;72.69;100072.78;10453737;28;20041;-64
2021/07/07 03:42:45;;;;;;;2.93;0.50;;;;;;;17.17;73.27;100071.56;10455633;28;20119;-62
2021/07/07 03:47:47;;;;;;;3.65;0.80;;;;;;;17.29;72.70;100066.66;10459656;28;20732;-63
2021/07/07 03:52:48;;;;;;;2.17;0.73;;;;;;;17.27;73.10;100077.59;10439177;28;20037;-63
2021/07/07 03:57:50;;;;;;;2.90;0.90;;;;;;;17.28;72.45;100063.16;10464064;28;20049;-63
2021/07/07 04:02:55;;;;;;;2.83;0.80;;;;;;;17.39;72.89;100058.41;10445836;28;20055;-61
2021/07/07 04:07:57;;;;;;;2.97;0.77;;;;;;;17.53;72.34;100079.22;10452631;28;20040;-63
2021/07/07 04:12:58;;;;;;;3.90;0.85;;;;;;;17.54;71.77;100080.91;10454086;28;20489;-61
2021/07/07 04:18:00;;;;;;;2.67;0.70;;;;;;;17.55;72.04;100077.19;10461902;28;20102;-64
2021/07/07 04:23:02;;;;;;;2.85;1.17;;;;;;;17.57;72.11;100109.31;10454358;28;20102;-62
2021/07/07 04:28:06;;;;;;;5.32;1.02;;;;;;;17.54;72.20;100082.75;10444792;28;20036;-62
2021/07/07 04:33:07;;;;;;;2.05;0.85;;;;;;;17.51;73.11;100089.31;10457038;28;20043;-63
2021/07/07 04:38:09;;;;;;;5.03;1.02;;;;;;;17.55;72.96;100096.03;10452565;28;20053;-61
2021/07/07 04:43:10;;;;;;;2.13;0.60;;;;;;;17.68;73.09;100095.47;10451379;28;20049;-61
2021/07/07 04:48:13;;;;;;;2.35;0.75;;;;;;;17.75;72.58;100103.72;10452138;28;20410;-61
2021/07/07 04:53:15;;;;;;;1.58;0.77;;;;;;;17.75;70.75;100106.41;10465469;28;20557;-63
2021/07/07 04:58:17;;;;;;;1.88;0.80;;;;;;;17.74;70.81;100099.34;10455980;28;20044;-64
2021/07/07 05:03:19;;;;;;;4.95;0.93;;;;;;;17.60;70.58;100096.34;10469015;28;20484;-62
2021/07/07 05:08:21;;;;;;;2.80;1.00;;;;;;;17.61;70.84;100129.47;10451643;28;20049;-62
2021/07/07 05:13:23;;;;;;;3.55;1.00;;;;;;;17.72;69.77;100110.28;10452694;28;20040;-62
2021/07/07 05:18:24;;;;;;;3.90;0.80;;;;;;;17.75;71.21;100127.94;10453996;28;20048;-61
2021/07/07 05:23:26;;;;;;;3.13;1.33;;;;;;;17.85;70.42;100133.97;10440532;28;20045;-61
2021/07/07 05:28:28;;;;;;;3.90;1.42;;;;;;;17.82;71.14;100161.25;10465036;28;20056;-62
2021/07/07 05:33:34;;;;;;;4.85;1.38;;;;;;;17.79;70.47;100157.03;10455614;28;20448;-62
2021/07/07 05:38:37;;;;;;;3.65;1.00;;;;;;;17.61;71.59;100178.78;10457766;28;20041;-61
2021/07/07 05:43:38;;;;;;;4.93;1.23;;;;;;;17.53;71.04;100172.56;10449912;28;20054;-64
2021/07/07 05:48:40;;;;;;;1.92;0.70;;;;;;;17.49;71.15;100166.69;10448714;28;20665;-60
2021/07/07 05:53:42;;;;;;;2.60;1.00;;;;;;;17.56;70.46;100164.16;10433621;28;20409;-62
2021/07/07 05:58:46;;;;;;;3.85;0.70;;;;;;;17.63;69.74;100160.59;10441994;28;20558;-61
2021/07/07 06:03:47;;;;;;;;;;;;;;;17.68;70.10;100154.69;10431188;28;20557;-62
2021/07/07 06:08:49;;;;;;;4.55;0.80;;;;;;;17.83;69.70;100165.59;10449083;28;19928;-61
2021/07/07 06:13:50;;;;;;;3.00;1.10;;;;;;;17.88;69.46;100179.38;10457080;28;20048;-62
2021/07/07 06:18:52;;;;;;;3.53;0.80;;;;;;;17.93;69.24;100197.75;10440297;28;20127;-63
2021/07/07 06:23:54;;;;;;;5.63;1.77;;;;;;;18.00;69.54;100183.41;10456301;28;20677;-65
2021/07/07 06:28:56;;;;;;;2.22;0.88;;;;;;;18.18;69.25;100182.34;10460461;28;20060;-62
2021/07/07 06:33:58;;;;;;;3.13;0.85;;;;;;;18.38;68.35;100194.34;10481641;28;20050;-62
2021/07/07 06:38:59;;;;;;;2.97;1.02;;;;;;;18.46;68.54;100176.47;10445952;28;20061;-64
2021/07/07 06:44:01;;;;;;;6.25;1.10;;;;;;;18.51;68.20;100199.19;10463923;28;20048;-62
2021/07/07 06:49:04;;;;;;;6.53;1.60;;;;;;;18.38;68.15;100201.63;10463001;28;20051;-63
2021/07/07 06:54:05;;;;;;;5.15;1.10;;;;;;;18.62;67.83;100205.19;10453042;28;20060;-63
2021/07/07 06:59:07;;;;;;;5.55;1.65;;;;;;;18.85;67.45;100210.59;10459986;28;20048;-62
2021/07/07 07:04:08;;;;;;;4.90;1.20;;;;;;;18.98;66.50;100215.44;10463810;28;20054;-63
2021/07/07 07:09:12;;;;;;;3.08;1.15;;;;;;;18.75;67.36;100210.00;10456471;28;20750;-63
2021/07/07 07:14:13;;;;;;;5.38;1.23;;;;;;;18.60;68.05;100229.63;10460342;28;20045;-63
2021/07/07 07:19:15;;;;;;;2.40;1.02;;;;;;;18.67;68.21;100233.28;10464363;28;20075;-61
2021/07/07 07:24:17;;;;;;;4.93;0.98;;;;;;;18.52;67.94;100226.97;10445212;28;21593;-61
2021/07/07 07:29:18;;;;;;;4.28;1.05;;;;;;;18.51;67.25;100230.66;10461134;28;20049;-63
2021/07/07 07:34:20;;;;;;;7.32;3.88;;;;;;;18.71;67.88;100234.63;10461940;28;21632;-62
2021/07/07 07:39:24;;;;;;;2.72;0.90;;;;;;;18.83;67.01;100235.06;10468894;28;20064;-65
2021/07/07 07:44:26;;;;;;;2.20;1.00;;;;;;;18.88;66.89;100223.75;10459188;28;20037;-65
2021/07/07 07:49:27;;;;;;;2.63;0.90;;;;;;;18.99;67.02;100228.75;10454370;28;20049;-63
2021/07/07 07:54:29;;;;;;;4.07;0.90;;;;;;;19.04;66.92;100230.91;10454511;28;20055;-66
2021/07/07 07:59:30;;;;;;;1.23;0.70;;;;;;;19.39;66.36;100234.00;10462065;28;20052;-63
2021/07/07 08:04:32;;;;;;;4.13;1.30;;;;;;;19.61;65.57;100229.59;10457302;28;20053;-65
2021/07/07 08:09:34;;;;;;;2.03;1.05;;;;;;;19.84;65.37;100223.34;10455845;28;20494;-63
2021/07/07 08:14:35;;;;;;;2.05;0.80;;;;;;;19.97;64.99;100226.22;10457660;28;20049;-63
2021/07/07 08:19:37;;;;;;;4.25;1.00;;;;;;;20.38;64.35;100228.44;10473061;22;20041;-58
2021/07/07 08:24:38;;;;;;;3.65;1.02;;;;;;;20.72;63.49;100240.53;10455970;28;20059;-57
2021/07/07 08:29:40;;;;;;;3.13;1.05;;;;;;;20.74;62.90;100218.72;10456095;28;20583;-59
2021/07/07 08:34:41;;;;;;;3.67;1.30;;;;;;;20.58;62.71;100192.69;10453221;28;20154;-58
2021/07/07 08:39:43;;;;;;;11.13;1.75;;;;;;;20.87;63.13;100231.53;10457136;28;20507;-57
2021/07/07 08:44:45;;;;;;;3.35;2.10;;;;;;;21.25;63.56;100231.31;10459663;28;20041;-58
2021/07/07 08:49:47;;;;;;;7.30;2.25;;;;;;;21.61;61.33;100238.50;10456960;28;20132;-58
2021/07/07 08:54:48;;;;;;;3.75;1.50;;;;;;;21.79;60.67;100236.13;10465727;28;20059;-57
2021/07/07 08:59:50;;;;;;;2.70;1.55;;;;;;;21.92;59.05;100211.03;10461319;28;20078;-57
2021/07/07 09:04:51;;;;;;;4.13;1.60;;;;;;;22.01;60.84;100236.91;10453983;28;20544;-57
2021/07/07 09:09:53;;;;;;;4.30;1.55;;;;;;;22.54;59.13;100238.25;10452617;28;20064;-57
2021/07/07 09:15:09;;;;;;;3.17;1.73;;;;;;;22.76;56.22;100255.25;10455290;28;20048;-56
2021/07/07 09:20:20;;;;;;;3.45;1.52;;;;;;;22.42;57.03;100263.22;10448482;28;20044;-57
2021/07/07 09:25:29;;;;;;;3.33;1.95;;;;;;;22.18;58.13;100272.66;10452355;28;20553;-57
2021/07/07 09:30:32;;;;;;;4.00;2.40;;;;;;;22.71;55.96;100279.41;10448796;28;20390;-57
2021/07/07 09:35:34;;;;;;;4.57;2.00;;;;;;;23.17;55.89;100281.47;10452322;28;20049;-58
2021/07/07 09:40:41;;;;;;;3.78;2.25;;;;;;;23.94;54.41;100275.69;10452538;28;20109;-59
2021/07/07 09:45:46;;;;;;;3.78;2.08;;;;;;;23.96;52.89;100285.31;10458691;28;20477;-58
2021/07/07 09:50:48;;;;;;;5.20;2.00;;;;;;;23.90;53.77;100275.28;10457698;28;20123;-58
2021/07/07 09:55:50;;;;;;;2.25;1.40;;;;;;;24.32;52.68;100273.09;10453212;28;20053;-57
2021/07/07 10:00:51;;;;;;;6.33;1.93;;;;;;;24.62;50.35;100279.94;10456490;28;20045;-57
2021/07/07 10:05:53;;;;;;;4.28;1.10;;;;;;;24.68;47.54;100277.19;10447515;28;20040;-58
2021/07/07 10:10:57;;;;;;;6.45;1.38;;;;;;;24.53;48.94;100277.44;10451574;28;20051;-58
2021/07/07 10:16:00;;;;;;;4.43;1.55;;;;;;;25.08;48.45;100269.88;10442485;28;20048;-57
2021/07/07 10:21:02;;;;;;;5.60;1.20;;;;;;;24.54;47.73;100272.81;10457924;28;20086;-57
2021/07/07 10:26:04;;;;;;;4.13;1.23;;;;;;;24.86;46.55;100275.63;10452816;28;20457;-57
2021/07/07 10:31:07;;;;;;;5.20;0.70;;;;;;;25.24;44.30;100259.28;10450627;28;25742;-57
2021/07/07 10:36:13;;;;;;;3.85;1.20;;;;;;;26.10;42.61;100276.00;10456507;28;20280;-57
2021/07/07 10:41:14;;;;;;;5.43;1.00;;;;;;;25.53;45.25;100277.97;10452419;28;20067;-56
2021/07/07 10:46:50;;;;;;;2.72;1.05;;;;;;;25.90;44.45;100278.06;10451000;28;20723;-58
2021/07/07 10:51:57;;;;;;;3.15;1.00;;;;;;;26.33;42.96;100279.94;10453038;28;20071;-58
2021/07/07 10:57:02;;;;;;;4.05;0.80;;;;;;;25.83;43.40;100271.84;10458099;28;20040;-57
2021/07/07 11:02:08;;;;;;;3.05;0.85;;;;;;;26.49;41.29;100255.88;10454388;28;20056;-57
2021/07/07 11:07:31;;;;;;;3.08;0.88;;;;;;;26.41;42.67;100263.28;10448371;28;20040;-56
2021/07/07 11:12:35;;;;;;;3.78;0.65;;;;;;;26.42;43.03;100253.19;10448107;28;20052;-57
2021/07/07 11:17:48;;;;;;;2.58;0.82;;;;;;;26.55;40.32;100263.13;10451939;28;20060;-56
2021/07/07 11:23:10;;;;;;;5.82;1.30;;;;;;;26.73;43.00;100252.22;10454649;28;20575;-58
2021/07/07 11:28:15;;;;;;;1.73;0.90;;;;;;;26.85;41.13;100260.44;10450718;28;20071;-57
2021/07/07 11:33:17;;;;;;;5.30;1.08;;;;;;;26.85;41.42;100251.44;10448089;28;21609;-59
2021/07/07 11:38:22;;;;;;;2.57;0.63;;;;;;;26.75;41.67;100251.97;10450851;28;20104;-59
2021/07/07 11:43:30;;;;;;;4.38;0.80;;;;;;;27.16;40.30;100240.25;10459656;28;20500;-57
2021/07/07 11:48:40;;;;;;;4.68;1.65;;;;;;;27.40;36.68;100254.00;10459325;28;20048;-56
2021/07/07 11:53:44;;;;;;;3.90;0.82;;;;;;;27.42;39.01;100240.94;10456856;28;20490;-57
2021/07/07 11:58:56;;;;;;;3.08;0.60;;;;;;;27.73;40.29;100233.47;10460601;28;20040;-58
2021/07/07 12:04:03;;;;;;;;;;;;;;;27.81;35.33;100233.09;10469985;28;20473;-56
2021/07/07 12:09:18;;;;;;;2.60;0.63;;;;;;;27.95;37.94;100227.38;10456870;28;20023;-56
2021/07/07 12:14:23;;;;;;;2.08;0.50;;;;;;;27.99;37.18;100223.13;10456945;28;23100;-58
2021/07/07 12:19:26;;;;;;;3.00;0.70;;;;;;;27.53;38.28;100222.88;10458146;28;20049;-57
2021/07/07 12:24:35;;;;;;;3.08;0.70;;;;;;;26.89;38.63;100220.69;10455481;28;20048;-58
2021/07/07 12:29:41;;;;;;;2.85;0.68;;;;;;;27.23;38.34;100222.91;10463359;28;20044;-56
2021/07/07 12:34:49;;;;;;;3.70;0.70;;;;;;;27.05;37.67;100224.66;10464403;28;20514;-58
2021/07/07 12:39:54;;;;;;;3.53;1.00;;;;;;;27.00;38.83;100227.25;10454592;28;20041;-58
2021/07/07 12:45:17;;;;;;;4.05;0.77;;;;;;;27.31;36.66;100226.16;10456247;28;20055;-57
2021/07/07 12:50:21;;;;;;;3.40;0.88;;;;;;;27.21;36.32;100225.88;10456948;28;20048;-59
2021/07/07 12:55:27;;;;;;;3.38;0.82;;;;;;;27.30;36.31;100227.22;10461631;28;20041;-59
2021/07/07 13:00:32;;;;;;;3.25;1.13;;;;;;;27.33;35.72;100225.94;10454296;28;20701;-58
2021/07/07 13:05:51;;;;;;;3.35;0.60;;;;;;;27.15;35.36;100221.38;10451394;28;20040;-58
2021/07/07 13:10:54;;;;;;;4.80;0.85;;;;;;;26.69;36.08;100226.41;10452476;28;20043;-57
2021/07/07 13:16:16;;;;;;;3.58;0.90;;;;;;;26.95;35.84;100232.59;10454902;28;20053;-55
2021/07/07 13:21:45;;;;;;;5.00;1.45;;;;;;;26.81;35.52;100213.69;10462981;28;20482;-56
2021/07/07 13:27:06;;;;;;;5.85;0.88;;;;;;;27.10;36.28;100222.06;10454241;28;20051;-57
2021/07/07 13:32:14;;;;;;;2.70;0.60;;;;;;;27.21;35.06;100225.06;10449268;28;20044;-57
2021/07/07 13:37:28;;;;;;;1.80;0.70;;;;;;;26.99;34.12;100233.78;10452073;28;20519;-57
2021/07/07 13:42:30;;;;;;;1.92;0.70;;;;;;;26.78;34.88;100218.75;10458193;28;20040;-57
2021/07/07 13:47:32;;;;;;;;;;;;;;;26.64;35.34;100234.44;10460492;28;20548;-56
2021/07/07 13:52:34;;;;;;;3.17;0.70;;;;;;;26.73;34.92;100230.38;10453870;28;19928;-58
2021/07/07 13:57:36;;;;;;;4.97;0.90;;;;;;;26.39;36.27;100237.28;10464738;28;20059;-59
2021/07/07 14:02:38;;;;;;;1.95;0.73;;;;;;;26.02;35.35;100223.66;10451527;28;20063;-56
2021/07/07 14:07:39;;;;;;;4.43;1.70;;;;;;;26.40;35.02;100238.97;10452718;28;20056;-57
2021/07/07 14:12:41;;;;;;;4.38;0.60;;;;;;;26.46;35.76;100219.75;10453188;28;20426;-58
2021/07/07 14:17:42;;;;;;;3.17;0.87;;;;;;;26.27;35.20;100226.28;10425283;23;1161927;-61
2021/07/07 14:22:44;;;;;;;3.27;0.80;;;;;;;26.09;36.13;100227.97;10452720;28;20057;-63
2021/07/07 14:27:46;;;;;;;3.20;0.90;;;;;;;26.09;35.43;100232.59;10455247;28;20520;-61
2021/07/07 14:32:48;;;;;;;3.90;0.65;;;;;;;26.06;35.79;100233.91;10436281;28;20374;-61
2021/07/07 14:37:50;;;;;;;4.00;1.15;;;;;;;26.15;35.80;100225.41;10453880;28;20140;-62
2021/07/07 14:42:52;;;;;;;5.13;1.10;;;;;;;26.29;36.17;100221.47;10459291;28;20057;-62
2021/07/07 14:47:54;;;;;;;4.13;1.10;;;;;;;26.42;36.35;100209.53;10449504;28;20056;-62
2021/07/07 14:52:55;;;;;;;2.65;0.60;;;;;;;26.56;35.13;100213.78;10450112;28;20085;-62
2021/07/07 14:58:03;;;;;;;1.58;0.60;;;;;;;26.44;34.89;100219.16;10448488;28;20079;-62
2021/07/07 15:03:05;;;;;;;3.00;0.80;;;;;;;26.40;35.34;100207.03;10445994;28;20049;-62
2021/07/07 15:08:06;;;;;;;4.75;0.90;;;;;;;26.25;35.19;100214.78;10429215;28;20045;-62
2021/07/07 15:13:08;;;;;;;3.88;1.55;;;;;;;26.29;35.61;100208.66;10449221;28;20041;-61
2021/07/07 15:18:10;;;;;;;2.15;0.93;;;;;;;26.23;35.71;100211.47;10465648;28;24993;-61
2021/07/07 15:23:12;;;;;;;3.10;0.70;;;;;;;26.16;36.09;100216.16;10464695;28;20044;-61
2021/07/07 15:28:34;;;;;;;2.53;0.80;;;;;;;26.03;36.19;100209.81;10467049;28;20739;-62
2021/07/07 15:33:36;;;;;;;2.03;0.55;;;;;;;25.90;36.67;100227.09;10469731;28;20053;-62
2021/07/07 15:38:38;;;;;;;6.13;1.13;;;;;;;25.63;35.96;100223.78;10467602;28;20052;-62
2021/07/07 15:43:40;;;;;;;1.40;0.70;;;;;;;25.44;36.15;100224.81;10460098;28;20131;-62
2021/07/07 15:48:41;;;;;;;3.25;1.15;;;;;;;25.39;35.74;100228.19;10462114;28;22532;-62
2021/07/07 15:53:43;;;;;;;2.90;1.00;;;;;;;25.51;35.71;100220.97;10459445;28;20042;-62
2021/07/07 15:58:45;;;;;;;3.08;0.73;;;;;;;25.69;36.79;100217.44;10460116;28;20048;-63
2021/07/07 16:03:47;;;;;;;1.73;0.90;;;;;;;25.69;36.12;100217.44;10468403;28;20055;-62
2021/07/07 16:08:48;;;;;;;3.97;1.10;;;;;;;25.49;37.50;100222.22;10460220;28;20052;-61
2021/07/07 16:13:50;;;;;;;1.65;0.70;;;;;;;25.53;37.31;100228.91;10437754;28;20044;-61
2021/07/07 16:18:53;;;;;;;2.75;0.90;;;;;;;25.62;36.89;100216.66;10459512;28;20059;-61
2021/07/07 16:23:55;;;;;;;3.42;0.90;;;;;;;25.69;36.50;100222.91;10453704;28;20041;-63
2021/07/07 16:28:57;;;;;;;1.98;0.70;;;;;;;25.77;36.65;100225.31;10462367;28;20140;-61
2021/07/07 16:34:01;;;;;;;3.58;0.63;;;;;;;25.66;36.32;100212.44;10434971;28;20041;-62
2021/07/07 16:39:04;;;;;;;3.80;0.77;;;;;;;25.61;36.42;100215.00;10452852;28;20041;-63
2021/07/07 16:44:06;;;;;;;4.85;0.93;;;;;;;25.65;35.82;100229.84;10467164;28;20048;-62
2021/07/07 16:49:07;;;;;;;3.05;0.80;;;;;;;25.61;36.72;100223.16;10454806;28;20048;-62
2021/07/07 16:54:09;;;;;;;3.95;1.35;;;;;;;25.43;36.49;100223.13;10464303;28;20472;-62
2021/07/07 16:59:10;;;;;;;3.70;1.40;;;;;;;25.27;37.14;100217.16;10457818;28;20182;-62
2021/07/07 17:04:12;;;;;;;4.93;1.08;;;;;;;25.19;37.08;100217.41;10441290;28;20052;-62
2021/07/07 17:09:14;;;;;;;2.63;1.08;;;;;;;25.19;37.49;100217.41;10452350;28;20053;-62
2021/07/07 17:14:16;;;;;;;2.13;0.60;;;;;;;25.14;37.85;100215.34;10456625;28;20462;-62
2021/07/07 17:19:17;;;;;;;5.03;1.10;;;;;;;25.10;37.95;100221.47;10425128;28;20055;-62
2021/07/07 17:24:19;;;;;;;4.50;1.30;;;;;;;25.12;38.02;100227.53;10451034;28;20049;-61
2021/07/07 17:29:21;;;;;;;6.10;1.17;;;;;;;25.02;38.24;100228.84;10443456;28;20059;-61
2021/07/07 17:34:22;;;;;;;2.70;0.80;;;;;;;24.94;38.94;100229.09;10434503;28;20296;-61
2021/07/07 17:39:24;;;;;;;1.70;0.50;;;;;;;24.86;37.69;100230.19;10420689;28;20083;-60
2021/07/07 17:44:26;;;;;;;3.15;1.67;;;;;;;24.85;38.61;100233.97;10412307;28;20119;-61
2021/07/07 17:49:27;;;;;;;3.97;1.13;;;;;;;24.83;38.75;100229.78;10434147;28;20059;-63
2021/07/07 17:54:29;;;;;;;4.32;1.02;;;;;;;24.80;40.13;100231.06;10439098;28;20502;-61
2021/07/07 17:59:30;;;;;;;3.92;1.30;;;;;;;24.73;39.67;100240.34;10440286;28;20049;-61
2021/07/07 18:04:33;;;;;;;1.77;0.70;;;;;;;24.65;40.10;100242.25;10426994;28;20049;-63
2021/07/07 18:09:35;;;;;;;4.95;1.10;;;;;;;24.56;40.22;100240.81;10443122;28;20053;-61
2021/07/07 18:14:36;;;;;;;2.78;0.85;;;;;;;24.48;40.52;100239.13;10436544;28;20056;-60
2021/07/07 18:19:38;;;;;;;4.03;1.10;;;;;;;24.44;40.01;100251.53;10442464;28;20067;-61
2021/07/07 18:24:40;;;;;;;3.05;1.30;;;;;;;24.37;40.74;100258.03;10432953;28;20085;-61
2021/07/07 18:29:41;;;;;;;3.13;1.20;;;;;;;24.31;40.75;100265.16;10440163;28;20048;-61
2021/07/07 18:35:07;;;;;;;4.45;1.08;;;;;;;24.18;41.49;100277.75;10441865;28;20348;-62
2021/07/07 18:40:10;;;;;;;5.30;1.63;;;;;;;24.10;41.50;100282.56;10433890;28;20106;-62
2021/07/07 18:45:11;;;;;;;3.50;1.60;;;;;;;24.06;41.53;100286.75;10434860;28;20056;-62
2021/07/07 18:50:14;;;;;;;5.65;1.15;;;;;;;23.98;41.88;100280.50;10437585;28;20053;-62
2021/07/07 18:55:15;;;;;;;2.88;1.08;;;;;;;23.93;42.15;100293.03;10444191;28;20052;-61
2021/07/07 19:00:19;;;;;;;3.97;1.77;;;;;;;23.87;41.92;100286.56;10457408;28;20499;-62
2021/07/07 19:05:21;;;;;;;3.05;1.20;;;;;;;23.81;42.50;100279.25;10450128;28;20064;-62
2021/07/07 19:10:26;;;;;;;6.45;1.75;;;;;;;23.79;42.34;100279.41;10449561;28;20060;-62
2021/07/07 19:15:28;;;;;;;3.17;1.45;;;;;;;23.80;42.40;100281.09;10449871;28;20520;-62
2021/07/07 19:20:30;;;;;;;3.03;1.40;;;;;;;23.78;42.57;100293.22;10454578;28;20048;-63
2021/07/07 19:25:32;;;;;;;5.25;1.45;;;;;;;23.73;42.33;100290.31;10451029;28;20048;-64
2021/07/07 19:30:34;;;;;;;4.97;1.85;;;;;;;23.70;43.19;100301.59;10447916;28;20603;-62
2021/07/07 19:35:36;;;;;;;4.22;2.55;;;;;;;23.71;43.32;100306.00;10449447;28;20056;-62
2021/07/07 19:40:40;;;;;;;3.15;1.95;;;;;;;23.64;43.42;100304.13;10454658;28;20103;-61
2021/07/07 19:45:42;;;;;;;5.15;2.55;;;;;;;23.58;43.74;100306.81;10440580;28;20425;-62
2021/07/07 19:50:48;;;;;;;3.53;1.98;;;;;;;23.47;43.99;100305.56;10437983;28;20052;-61
2021/07/07 19:55:52;;;;;;;4.30;1.83;;;;;;;23.36;44.28;100307.00;10446778;28;20048;-61
2021/07/07 20:00:53;;;;;;;2.70;1.45;;;;;;;23.31;45.05;100312.19;10436596;28;20052;-61
2021/07/07 20:06:11;;;;;;;3.80;1.77;;;;;;;23.25;45.18;100313.03;10437640;28;20040;-61
2021/07/07 20:11:14;;;;;;;3.70;1.63;;;;;;;23.20;45.75;100318.25;10437840;28;20497;-61
2021/07/07 20:16:17;;;;;;;5.05;2.63;;;;;;;23.12;45.92;100324.72;10426966;28;20206;-61
2021/07/07 20:21:19;;;;;;;3.72;1.88;;;;;;;23.02;46.51;100316.06;10440505;28;20045;-61
2021/07/07 20:26:22;;;;;;;3.55;2.30;;;;;;;23.00;47.40;100334.44;10444866;28;20052;-61
2021/07/07 20:31:26;;;;;;;4.63;2.42;;;;;;;22.89;47.27;100335.84;10445257;28;20052;-62
2021/07/07 20:36:27;;;;;;;;;;;;;;;22.78;48.56;100350.84;10441083;28;20482;-61
2021/07/07 20:41:29;;;;;;;4.47;2.65;;;;;;;22.69;49.12;100352.06;10442229;28;20327;-62
2021/07/07 20:46:30;;;;;;;7.38;2.70;;;;;;;22.61;49.92;100369.34;10436609;28;20128;-61
2021/07/07 20:51:32;;;;;;;4.13;2.65;;;;;;;22.57;50.79;100365.34;10445134;28;20140;-64
2021/07/07 20:56:33;;;;;;;5.30;2.67;;;;;;;22.53;50.79;100355.91;10440761;28;20052;-62
2021/07/07 21:01:36;;;;;;;3.95;2.50;;;;;;;22.48;50.74;100364.66;10438088;28;20052;-62
2021/07/07 21:06:38;;;;;;;;;;;;;;;22.43;51.12;100375.28;10429246;28;20464;-61
2021/07/07 21:11:41;;;;;;;6.05;2.25;;;;;;;22.34;51.29;100374.59;10433390;28;19932;-61
2021/07/07 21:16:43;;;;;;;4.55;2.25;;;;;;;22.20;51.96;100378.19;10415952;28;20047;-61
2021/07/07 21:21:44;;;;;;;4.95;2.50;;;;;;;22.12;52.42;100381.06;10433399;28;20146;-61
2021/07/07 21:26:46;;;;;;;5.60;2.10;;;;;;;22.05;52.85;100381.00;10440049;28;20055;-60
2021/07/07 21:31:49;;;;;;;5.88;2.53;;;;;;;21.99;52.98;100387.19;10443145;28;20056;-60
2021/07/07 21:36:51;;;;;;;4.10;2.67;;;;;;;21.95;53.82;100386.75;10422137;28;20295;-60
2021/07/07 21:41:53;;;;;;;6.03;3.15;;;;;;;21.88;53.82;100394.00;10434616;28;20276;-61
2021/07/07 21:46:55;;;;;;;7.65;3.30;;;;;;;21.77;54.63;100398.06;10425010;28;20040;-62
2021/07/07 21:51:57;;;;;;;5.40;3.70;;;;;;;21.74;54.95;100406.56;10444520;28;20052;-62
2021/07/07 21:56:58;;;;;;;7.32;2.60;;;;;;;21.76;55.01;100420.75;10447616;28;20045;-61
2021/07/07 22:02:00;;;;;;;3.70;2.85;;;;;;;21.74;55.44;100428.25;10439896;28;20048;-61
2021/07/07 22:07:03;;;;;;;5.60;2.60;;;;;;;21.73;55.42;100431.16;10418063;28;20052;-61
2021/07/07 22:12:05;;;;;;;4.57;2.83;;;;;;;21.75;55.91;100434.50;10420085;28;20057;-60
2021/07/07 22:17:06;;;;;;;5.10;2.65;;;;;;;21.72;56.12;100441.13;10439207;28;20049;-61
2021/07/07 22:22:08;;;;;;;4.57;2.90;;;;;;;21.68;56.44;100437.16;10449368;28;20390;-61
2021/07/07 22:27:10;;;;;;;6.47;2.50;;;;;;;21.60;56.57;100431.84;10441196;28;20045;-61
2021/07/07 22:32:13;;;;;;;6.03;2.80;;;;;;;21.54;56.55;100447.84;10416629;28;20059;-61
2021/07/07 22:37:16;;;;;;;5.43;2.72;;;;;;;21.46;57.33;100453.31;10436088;28;20061;-62
2021/07/07 22:42:17;;;;;;;7.35;2.83;;;;;;;21.34;57.54;100444.00;10440920;28;20054;-62
2021/07/07 22:47:21;;;;;;;5.28;3.10;;;;;;;21.26;58.13;100446.81;10417936;28;20045;-60
2021/07/07 22:52:23;;;;;;;;;;;;;;;21.21;58.60;100444.66;10440129;28;20413;-60
2021/07/07 22:57:25;;;;;;;5.57;2.35;;;;;;;21.17;58.89;100433.38;10446975;28;19920;-61
2021/07/07 23:02:27;;;;;;;4.53;2.63;;;;;;;21.11;59.30;100433.31;10446677;28;20068;-60
2021/07/07 23:07:30;;;;;;;4.85;2.42;;;;;;;21.13;59.34;100452.91;10418416;28;20059;-61
2021/07/07 23:12:32;;;;;;;6.38;2.65;;;;;;;21.06;59.16;100458.22;10446953;28;20059;-61
2021/07/07 23:17:34;;;;;;;4.40;2.67;;;;;;;21.00;59.59;100450.84;10442207;28;20052;-62